createdAt,value
2018-02-14T00:02:21.298Z,0
2018-02-14T00:03:31.414Z,0
2018-02-14T00:04:41.545Z,0
2018-02-14T00:05:51.674Z,0
2018-02-14T00:07:01.802Z,0
2018-02-14T00:08:12.046Z,0
2018-02-14T00:09:22.193Z,0
2018-02-14T00:10:32.417Z,0
2018-02-14T00:11:42.710Z,0
2018-02-14T00:12:52.617Z,0
2018-02-14T00:14:02.731Z,0
2018-02-14T00:15:12.899Z,0
2018-02-14T00:16:22.760Z,0
2018-02-14T00:17:32.882Z,0
2018-02-14T00:18:42.745Z,0
2018-02-14T00:19:52.889Z,0
2018-02-14T00:21:03.019Z,0
2018-02-14T00:22:13.199Z,0
2018-02-14T00:23:23.415Z,0
2018-02-14T00:24:33.562Z,0
2018-02-14T00:25:43.743Z,0
2018-02-14T00:26:53.912Z,0
2018-02-14T00:28:04.269Z,0
2018-02-14T00:29:14.391Z,0
2018-02-14T00:30:24.528Z,0
2018-02-14T00:31:34.630Z,0
2018-02-14T00:32:44.775Z,0
2018-02-14T00:33:54.906Z,0
2018-02-14T00:35:04.772Z,0
2018-02-14T00:36:14.924Z,0
2018-02-14T00:37:24.665Z,0
2018-02-14T00:38:34.805Z,0
2018-02-14T00:39:44.995Z,0
2018-02-14T00:40:55.211Z,0
2018-02-14T00:42:05.395Z,0
2018-02-14T00:43:15.344Z,0
2018-02-14T00:44:25.480Z,0
2018-02-14T00:45:35.604Z,0
2018-02-14T00:46:45.797Z,0
2018-02-14T00:47:56.210Z,0
2018-02-14T00:49:06.068Z,0
2018-02-14T00:50:15.844Z,0
2018-02-14T00:51:25.967Z,0
2018-02-14T00:52:35.856Z,0
2018-02-14T00:53:45.994Z,0
2018-02-14T00:54:56.086Z,0
2018-02-14T00:56:06.230Z,0
2018-02-14T00:57:16.366Z,0
2018-02-14T00:58:26.699Z,0
2018-02-14T00:59:36.909Z,0
2018-02-14T01:00:46.775Z,0
2018-02-14T01:01:56.901Z,0
2018-02-14T01:03:07.036Z,0
2018-02-14T01:04:17.157Z,0
2018-02-14T01:05:27.431Z,0
2018-02-14T01:06:37.562Z,0
2018-02-14T01:07:47.454Z,0
2018-02-14T01:08:57.621Z,0
2018-02-14T01:10:07.899Z,0
2018-02-14T01:11:18.069Z,0
2018-02-14T01:12:27.923Z,0
2018-02-14T01:13:37.780Z,0
2018-02-14T01:14:47.893Z,0
2018-02-14T01:15:58.013Z,0
2018-02-14T01:17:08.149Z,0
2018-02-14T01:18:18.250Z,0
2018-02-14T01:19:28.372Z,0
2018-02-14T01:20:38.218Z,0
2018-02-14T01:21:48.326Z,0
2018-02-14T01:22:58.436Z,0
2018-02-14T01:24:08.561Z,0
2018-02-14T01:25:18.963Z,0
2018-02-14T01:26:29.084Z,0
2018-02-14T01:27:39.284Z,0
2018-02-14T01:28:49.478Z,0
2018-02-14T01:29:59.639Z,0
2018-02-14T01:31:09.908Z,0
2018-02-14T01:32:20.108Z,0
2018-02-14T01:33:30.270Z,0
2018-02-14T01:34:40.401Z,0
2018-02-14T01:35:50.512Z,0
2018-02-14T01:37:00.657Z,0
2018-02-14T01:38:10.792Z,0
2018-02-14T01:39:20.935Z,0
2018-02-14T01:40:30.846Z,0
2018-02-14T01:41:41.081Z,0
2018-02-14T01:42:51.181Z,0
2018-02-14T01:44:01.162Z,0
2018-02-14T01:45:11.115Z,0
2018-02-14T01:46:21.236Z,0
2018-02-14T01:47:31.091Z,0
2018-02-14T01:48:41.292Z,0
2018-02-14T01:49:51.492Z,0
2018-02-14T01:51:01.615Z,0
2018-02-14T01:52:11.514Z,0
2018-02-14T01:53:21.727Z,0
2018-02-14T01:54:31.886Z,0
2018-02-14T01:55:42.052Z,0
2018-02-14T01:56:52.182Z,0
2018-02-14T01:58:02.307Z,0
2018-02-14T01:59:12.182Z,0
2018-02-14T02:00:22.277Z,0
2018-02-14T02:01:32.370Z,0
2018-02-14T02:02:42.592Z,0
2018-02-14T02:03:52.688Z,0
2018-02-14T02:05:02.787Z,0
2018-02-14T02:06:13.663Z,0
2018-02-14T02:07:23.826Z,0
2018-02-14T02:08:33.985Z,0
2018-02-14T02:09:44.093Z,0
2018-02-14T02:10:54.209Z,0
2018-02-14T02:12:04.322Z,0
2018-02-14T02:13:14.535Z,0
2018-02-14T02:14:24.645Z,0
2018-02-14T02:15:34.777Z,0
2018-02-14T02:16:44.897Z,0
2018-02-14T02:17:55.028Z,0
2018-02-14T02:19:05.187Z,0
2018-02-14T02:20:15.551Z,0
2018-02-14T02:21:25.713Z,0
2018-02-14T02:22:35.896Z,0
2018-02-14T02:23:46.022Z,0
2018-02-14T02:24:56.177Z,0
2018-02-14T02:26:06.300Z,0
2018-02-14T02:27:16.412Z,0
2018-02-14T02:28:26.146Z,0
2018-02-14T02:29:36.265Z,0
2018-02-14T02:30:46.221Z,0
2018-02-14T02:31:56.340Z,0
2018-02-14T02:33:06.203Z,0
2018-02-14T02:34:16.385Z,0
2018-02-14T02:35:26.497Z,0
2018-02-14T02:36:36.616Z,0
2018-02-14T02:37:46.807Z,0
2018-02-14T02:38:57.017Z,0
2018-02-14T02:40:07.439Z,0
2018-02-14T02:41:17.541Z,0
2018-02-14T02:42:27.708Z,0
2018-02-14T02:43:37.563Z,0
2018-02-14T02:44:47.672Z,0
2018-02-14T02:45:57.814Z,0
2018-02-14T02:47:07.677Z,0
2018-02-14T02:48:17.644Z,0
2018-02-14T02:49:27.740Z,0
2018-02-14T02:50:37.844Z,0
2018-02-14T02:51:47.962Z,0
2018-02-14T02:52:58.110Z,0
2018-02-14T02:54:08.228Z,0
2018-02-14T02:55:18.074Z,0
2018-02-14T02:56:27.851Z,0
2018-02-14T02:57:37.977Z,0
2018-02-14T02:58:48.215Z,0
2018-02-14T02:59:58.071Z,0
2018-02-14T03:01:08.215Z,0
2018-02-14T03:02:17.814Z,0
2018-02-14T03:03:27.953Z,0
2018-02-14T03:04:37.461Z,0
2018-02-14T03:05:47.745Z,0
2018-02-14T03:06:57.945Z,0
2018-02-14T03:08:08.244Z,0
2018-02-14T03:09:18.354Z,0
2018-02-14T03:10:28.489Z,0
2018-02-14T03:11:38.615Z,0
2018-02-14T03:12:48.739Z,0
2018-02-14T03:13:58.854Z,0
2018-02-14T03:15:08.972Z,0
2018-02-14T03:16:20.150Z,0
2018-02-14T03:17:30.014Z,0
2018-02-14T03:18:40.130Z,0
2018-02-14T03:19:50.257Z,0
2018-02-14T03:21:00.111Z,0
2018-02-14T03:22:10.232Z,0
2018-02-14T03:23:20.355Z,0
2018-02-14T03:24:30.516Z,0
2018-02-14T03:25:40.404Z,0
2018-02-14T03:26:50.705Z,0
2018-02-14T03:28:01.120Z,0
2018-02-14T03:29:11.220Z,0
2018-02-14T03:30:20.967Z,0
2018-02-14T03:31:30.742Z,0
2018-02-14T03:32:40.856Z,0
2018-02-14T03:33:50.963Z,0
2018-02-14T03:35:00.815Z,0
2018-02-14T03:36:10.666Z,0
2018-02-14T03:37:20.775Z,0
2018-02-14T03:38:30.878Z,0
2018-02-14T03:39:40.982Z,0
2018-02-14T03:40:51.092Z,0
2018-02-14T03:42:01.206Z,0
2018-02-14T03:43:10.815Z,0
2018-02-14T03:44:20.941Z,0
2018-02-14T03:45:31.045Z,0
2018-02-14T03:46:41.165Z,0
2018-02-14T03:47:51.428Z,0
2018-02-14T03:49:01.281Z,0
2018-02-14T03:50:11.389Z,0
2018-02-14T03:51:21.510Z,0
2018-02-14T03:52:31.694Z,0
2018-02-14T03:53:41.830Z,0
2018-02-14T03:54:51.968Z,0
2018-02-14T03:56:02.203Z,0
2018-02-14T03:57:12.318Z,0
2018-02-14T03:58:22.418Z,0
2018-02-14T03:59:33.507Z,0
2018-02-14T04:00:43.886Z,0
2018-02-14T04:01:54.202Z,0
2018-02-14T04:03:04.817Z,0
2018-02-14T04:04:14.953Z,0
2018-02-14T04:05:25.065Z,0
2018-02-14T04:06:35.182Z,0
2018-02-14T04:07:45.308Z,0
2018-02-14T04:08:55.273Z,0
2018-02-14T04:10:05.457Z,0
2018-02-14T04:11:15.664Z,0
2018-02-14T04:12:25.952Z,0
2018-02-14T04:13:36.183Z,0
2018-02-14T04:14:46.366Z,0
2018-02-14T04:15:56.556Z,0
2018-02-14T04:17:06.686Z,0
2018-02-14T04:18:16.788Z,0
2018-02-14T04:19:26.920Z,0
2018-02-14T04:20:37.031Z,0
2018-02-14T04:21:47.204Z,0
2018-02-14T04:22:57.083Z,0
2018-02-14T04:24:07.196Z,0
2018-02-14T04:25:17.405Z,0
2018-02-14T04:26:27.563Z,0
2018-02-14T04:27:37.780Z,0
2018-02-14T04:28:48.045Z,0
2018-02-14T04:29:58.223Z,0
2018-02-14T04:31:08.459Z,0
2018-02-14T04:32:18.408Z,0
2018-02-14T04:33:28.529Z,0
2018-02-14T04:34:38.651Z,0
2018-02-14T04:35:48.560Z,0
2018-02-14T04:36:58.410Z,0
2018-02-14T04:38:08.518Z,0
2018-02-14T04:39:18.618Z,0
2018-02-14T04:40:28.732Z,0
2018-02-14T04:41:38.853Z,0
2018-02-14T04:42:48.966Z,0
2018-02-14T04:43:59.077Z,0
2018-02-14T04:45:09.305Z,0
2018-02-14T04:46:19.433Z,0
2018-02-14T04:47:29.679Z,0
2018-02-14T04:48:39.859Z,0
2018-02-14T04:49:50.040Z,0
2018-02-14T04:50:59.921Z,0
2018-02-14T04:52:10.046Z,0
2018-02-14T04:53:20.150Z,0
2018-02-14T04:54:30.278Z,0
2018-02-14T04:55:40.415Z,0
2018-02-14T04:56:50.555Z,0
2018-02-14T04:58:00.789Z,0
2018-02-14T04:59:11.011Z,0
2018-02-14T05:00:21.348Z,0
2018-02-14T05:01:31.452Z,0
2018-02-14T05:02:41.792Z,0
2018-02-14T05:03:51.947Z,0
2018-02-14T05:05:02.056Z,0
2018-02-14T05:06:12.312Z,0
2018-02-14T05:07:22.445Z,0
2018-02-14T05:08:32.620Z,0
2018-02-14T05:09:42.964Z,0
2018-02-14T05:10:53.283Z,0
2018-02-14T05:12:03.391Z,0
2018-02-14T05:13:13.374Z,0
2018-02-14T05:14:23.510Z,0
2018-02-14T05:15:33.635Z,0
2018-02-14T05:16:43.857Z,0
2018-02-14T05:17:54.058Z,0
2018-02-14T05:19:04.895Z,0
2018-02-14T05:20:14.760Z,0
2018-02-14T05:21:24.904Z,0
2018-02-14T05:22:35.026Z,0
2018-02-14T05:23:45.182Z,0
2018-02-14T05:24:55.302Z,0
2018-02-14T05:26:05.408Z,0
2018-02-14T05:27:15.535Z,0
2018-02-14T05:28:25.653Z,0
2018-02-14T05:29:35.879Z,0
2018-02-14T05:30:45.995Z,0
2018-02-14T05:31:56.129Z,0
2018-02-14T05:33:06.418Z,0
2018-02-14T05:34:16.584Z,0
2018-02-14T05:35:26.798Z,0
2018-02-14T05:36:36.666Z,0
2018-02-14T05:37:46.816Z,0
2018-02-14T05:38:56.947Z,0
2018-02-14T05:40:07.063Z,0
2018-02-14T05:41:16.937Z,0
2018-02-14T05:42:27.202Z,0
2018-02-14T05:43:38.415Z,0
2018-02-14T05:44:48.592Z,0
2018-02-14T05:45:58.882Z,0
2018-02-14T05:47:09.085Z,0
2018-02-14T05:48:19.304Z,0
2018-02-14T05:49:29.495Z,0
2018-02-14T05:50:39.699Z,0
2018-02-14T05:51:49.930Z,0
2018-02-14T05:52:59.824Z,0
2018-02-14T05:54:09.964Z,0
2018-02-14T05:55:20.124Z,0
2018-02-14T05:56:30.253Z,0
2018-02-14T05:57:40.140Z,4
2018-02-14T05:58:50.260Z,0
2018-02-14T06:00:00.468Z,4
2018-02-14T06:01:10.577Z,4
2018-02-14T06:02:20.699Z,4
2018-02-14T06:03:30.837Z,4
2018-02-14T06:04:40.902Z,4
2018-02-14T06:05:51.044Z,8
2018-02-14T06:07:01.177Z,8
2018-02-14T06:08:11.285Z,8
2018-02-14T06:09:21.599Z,12
2018-02-14T06:10:31.695Z,12
2018-02-14T06:11:41.911Z,20
2018-02-14T06:12:52.130Z,20
2018-02-14T06:14:02.294Z,28
2018-02-14T06:15:12.154Z,28
2018-02-14T06:16:22.314Z,40
2018-02-14T06:17:32.409Z,44
2018-02-14T06:18:42.544Z,52
2018-02-14T06:19:52.779Z,60
2018-02-14T06:21:02.918Z,72
2018-02-14T06:22:13.268Z,84
2018-02-14T06:23:23.009Z,96
2018-02-14T06:24:32.876Z,108
2018-02-14T06:25:42.745Z,128
2018-02-14T06:26:52.873Z,144
2018-02-14T06:28:02.984Z,160
2018-02-14T06:29:12.774Z,180
2018-02-14T06:30:22.850Z,200
2018-02-14T06:31:33.022Z,224
2018-02-14T06:32:43.225Z,248
2018-02-14T06:33:53.331Z,272
2018-02-14T06:35:03.444Z,296
2018-02-14T06:36:13.360Z,328
2018-02-14T06:37:23.479Z,356
2018-02-14T06:38:33.623Z,388
2018-02-14T06:39:43.743Z,420
2018-02-14T06:40:53.871Z,452
2018-02-14T06:42:04.003Z,488
2018-02-14T06:43:13.951Z,528
2018-02-14T06:44:24.102Z,568
2018-02-14T06:45:34.289Z,604
2018-02-14T06:46:44.738Z,644
2018-02-14T06:47:54.888Z,688
2018-02-14T06:49:05.086Z,732
2018-02-14T06:50:14.982Z,776
2018-02-14T06:51:25.080Z,824
2018-02-14T06:52:35.213Z,872
2018-02-14T06:53:45.355Z,916
2018-02-14T06:54:55.498Z,968
2018-02-14T06:56:05.384Z,1020
2018-02-14T06:57:15.588Z,1068
2018-02-14T06:58:25.763Z,1120
2018-02-14T06:59:35.919Z,1168
2018-02-14T07:00:46.179Z,1220
2018-02-14T07:01:56.384Z,1272
2018-02-14T07:03:07.484Z,1336
2018-02-14T07:04:17.594Z,1424
2018-02-14T07:05:27.741Z,1528
2018-02-14T07:06:37.967Z,1640
2018-02-14T07:07:48.090Z,1732
2018-02-14T07:08:57.948Z,1816
2018-02-14T07:10:08.054Z,1892
2018-02-14T07:11:18.216Z,1968
2018-02-14T07:12:29.292Z,2072
2018-02-14T07:13:39.393Z,2232
2018-02-14T07:14:50.489Z,2436
2018-02-14T07:16:00.585Z,2652
2018-02-14T07:17:10.771Z,2924
2018-02-14T07:18:21.941Z,3324
2018-02-14T07:19:32.570Z,3684
2018-02-14T07:20:42.413Z,3988
2018-02-14T07:21:52.671Z,4312
2018-02-14T07:23:02.817Z,4576
2018-02-14T07:24:13.070Z,4848
2018-02-14T07:25:23.208Z,5124
2018-02-14T07:26:32.803Z,5380
2018-02-14T07:27:42.937Z,5652
2018-02-14T07:28:53.048Z,5980
2018-02-14T07:30:03.270Z,6008
2018-02-14T07:31:13.398Z,6512
2018-02-14T07:32:23.518Z,6824
2018-02-14T07:33:33.674Z,7056
2018-02-14T07:34:43.782Z,7336
2018-02-14T07:35:53.948Z,7616
2018-02-14T07:37:04.088Z,7880
2018-02-14T07:38:14.271Z,8144
2018-02-14T07:39:24.558Z,8444
2018-02-14T07:40:34.684Z,8740
2018-02-14T07:41:44.655Z,9048
2018-02-14T07:42:54.788Z,9304
2018-02-14T07:44:06.085Z,9592
2018-02-14T07:45:16.282Z,9852
2018-02-14T07:46:26.145Z,10156
2018-02-14T07:47:35.824Z,10512
2018-02-14T07:48:45.996Z,10672
2018-02-14T07:49:56.135Z,10948
2018-02-14T07:51:06.338Z,11232
2018-02-14T07:52:16.509Z,11584
2018-02-14T07:53:26.011Z,11840
2018-02-14T07:54:36.132Z,12192
2018-02-14T07:55:46.244Z,12544
2018-02-14T07:56:56.466Z,12928
2018-02-14T07:58:06.669Z,12768
2018-02-14T07:59:16.784Z,13696
2018-02-14T08:00:26.959Z,13984
2018-02-14T08:01:37.179Z,12768
2018-02-14T08:02:47.096Z,14464
2018-02-14T08:03:57.328Z,14496
2018-02-14T08:05:07.296Z,14784
2018-02-14T08:06:17.411Z,15072
2018-02-14T08:07:27.805Z,15648
2018-02-14T08:08:37.957Z,16096
2018-02-14T08:09:48.069Z,16064
2018-02-14T08:10:58.190Z,16352
2018-02-14T08:12:08.391Z,16800
2018-02-14T08:13:19.474Z,17344
2018-02-14T08:14:29.633Z,17376
2018-02-14T08:15:39.751Z,17376
2018-02-14T08:16:49.875Z,17952
2018-02-14T08:17:59.987Z,18112
2018-02-14T08:19:10.103Z,18208
2018-02-14T08:20:20.086Z,18432
2018-02-14T08:21:30.246Z,18976
2018-02-14T08:22:40.366Z,19168
2018-02-14T08:23:50.534Z,19040
2018-02-14T08:25:00.733Z,19552
2018-02-14T08:26:10.725Z,20288
2018-02-14T08:27:20.878Z,20928
2018-02-14T08:28:31.012Z,20576
2018-02-14T08:29:41.210Z,20928
2018-02-14T08:30:51.407Z,22400
2018-02-14T08:32:01.370Z,21856
2018-02-14T08:33:11.247Z,22496
2018-02-14T08:34:21.607Z,22784
2018-02-14T08:35:31.731Z,21792
2018-02-14T08:36:41.849Z,23104
2018-02-14T08:37:52.030Z,24000
2018-02-14T08:39:02.184Z,23712
2018-02-14T08:40:12.344Z,24128
2018-02-14T08:41:22.493Z,25504
2018-02-14T08:42:32.712Z,24832
2018-02-14T08:43:42.861Z,24960
2018-02-14T08:44:53.072Z,25824
2018-02-14T08:46:03.285Z,26176
2018-02-14T08:47:13.181Z,25888
2018-02-14T08:48:23.377Z,25984
2018-02-14T08:49:33.490Z,27712
2018-02-14T08:50:43.610Z,28672
2018-02-14T08:51:53.730Z,26656
2018-02-14T08:53:03.870Z,26272
2018-02-14T08:54:14.041Z,27936
2018-02-14T08:55:23.937Z,30688
2018-02-14T08:56:34.142Z,30432
2018-02-14T08:57:44.340Z,29088
2018-02-14T08:58:54.510Z,28192
2018-02-14T09:00:04.657Z,29920
2018-02-14T09:01:14.791Z,29600
2018-02-14T09:02:25.930Z,29376
2018-02-14T09:03:36.185Z,31328
2018-02-14T09:04:46.067Z,31264
2018-02-14T09:05:56.213Z,31552
2018-02-14T09:07:38.057Z,32032
2018-02-14T09:08:48.268Z,30560
2018-02-14T09:09:58.500Z,31840
2018-02-14T09:11:08.715Z,32800
2018-02-14T09:12:18.893Z,32192
2018-02-14T09:13:29.747Z,31904
2018-02-14T09:14:39.874Z,35168
2018-02-14T09:15:49.743Z,35232
2018-02-14T09:16:59.885Z,36960
2018-02-14T09:18:10.073Z,34432
2018-02-14T09:19:20.248Z,36000
2018-02-14T09:20:30.514Z,37152
2018-02-14T09:21:40.414Z,36992
2018-02-14T09:22:50.553Z,36288
2018-02-14T09:24:00.708Z,36352
2018-02-14T09:25:10.887Z,37056
2018-02-14T09:26:21.103Z,34752
2018-02-14T09:27:31.378Z,35456
2018-02-14T09:28:41.263Z,35904
2018-02-14T09:29:51.380Z,36096
2018-02-14T09:31:01.525Z,37632
2018-02-14T09:32:11.436Z,36384
2018-02-14T09:33:21.559Z,38336
2018-02-14T09:34:31.687Z,37088
2018-02-14T09:35:41.965Z,35296
2018-02-14T09:36:52.157Z,41024
2018-02-14T09:38:02.037Z,37408
2018-02-14T09:39:12.170Z,38304
2018-02-14T09:40:22.337Z,39040
2018-02-14T09:41:32.519Z,39104
2018-02-14T09:42:43.635Z,40096
2018-02-14T09:43:58.352Z,37728
2018-02-14T09:45:12.116Z,37888
2018-02-14T09:46:26.832Z,41376
2018-02-14T09:47:38.218Z,38912
2018-02-14T09:48:48.502Z,37696
2018-02-14T09:49:58.728Z,41664
2018-02-14T09:51:08.883Z,41888
2018-02-14T09:52:22.445Z,41600
2018-02-14T09:53:32.584Z,41376
2018-02-14T09:54:43.141Z,36416
2018-02-14T09:55:54.547Z,37088
2018-02-14T09:58:16.191Z,39104
2018-02-14T09:59:27.367Z,42496
2018-02-14T10:01:54.370Z,38336
2018-02-14T10:03:05.984Z,39808
2018-02-14T10:04:18.343Z,39136
2018-02-14T10:05:28.604Z,43744
2018-02-14T10:06:38.882Z,45344
2018-02-14T10:07:49.092Z,48448
2018-02-14T10:08:59.298Z,43328
2018-02-14T10:10:09.465Z,41664
2018-02-14T10:11:19.760Z,44576
2018-02-14T10:12:29.657Z,46624
2018-02-14T10:13:39.620Z,50816
2018-02-14T10:14:49.799Z,48896
2018-02-14T10:15:59.942Z,44512
2018-02-14T10:17:10.078Z,45440
2018-02-14T10:18:20.218Z,51712
2018-02-14T10:19:30.352Z,49472
2018-02-14T10:20:40.613Z,44608
2018-02-14T10:21:50.798Z,43872
2018-02-14T10:23:00.985Z,46208
2018-02-14T10:24:10.860Z,51488
2018-02-14T10:25:21.976Z,48576
2018-02-14T10:26:32.204Z,47712
2018-02-14T10:27:42.358Z,44736
2018-02-14T10:28:52.615Z,47232
2018-02-14T10:30:02.864Z,47872
2018-02-14T10:31:13.042Z,47680
2018-02-14T10:32:23.242Z,46976
2018-02-14T10:33:33.471Z,48576
2018-02-14T10:34:43.632Z,50912
2018-02-14T10:35:53.810Z,51232
2018-02-14T10:37:03.708Z,52192
2018-02-14T10:38:13.905Z,47680
2018-02-14T10:39:24.092Z,46176
2018-02-14T10:40:34.364Z,48704
2018-02-14T10:41:44.289Z,47872
2018-02-14T10:42:54.477Z,45120
2018-02-14T10:44:04.614Z,51456
2018-02-14T10:45:14.809Z,47712
2018-02-14T10:46:24.989Z,41984
2018-02-14T10:47:34.801Z,52192
2018-02-14T10:48:44.991Z,51520
2018-02-14T10:49:55.149Z,47296
2018-02-14T10:51:05.331Z,44288
2018-02-14T10:52:15.326Z,44224
2018-02-14T10:53:25.468Z,42784
2018-02-14T10:54:35.692Z,45920
2018-02-14T10:55:45.939Z,59776
2018-02-14T10:56:56.100Z,57280
2018-02-14T10:58:06.267Z,53984
2018-02-14T10:59:16.441Z,59840
2018-02-14T11:00:26.581Z,53184
2018-02-14T11:01:37.750Z,48768
2018-02-14T11:02:47.894Z,46176
2018-02-14T11:03:58.016Z,45952
2018-02-14T11:05:08.183Z,51744
2018-02-14T11:06:18.089Z,58368
2018-02-14T11:07:28.002Z,47008
2018-02-14T11:08:37.876Z,45824
2018-02-14T11:09:48.017Z,51008
2018-02-14T11:10:58.173Z,43200
2018-02-14T11:12:08.456Z,44544
2018-02-14T11:13:18.634Z,46528
2018-02-14T11:14:28.820Z,48544
2018-02-14T11:15:39.045Z,51840
2018-02-14T11:16:48.990Z,49728
2018-02-14T11:17:59.130Z,46304
2018-02-14T11:19:09.283Z,50080
2018-02-14T11:20:19.229Z,49376
2018-02-14T11:21:29.380Z,48320
2018-02-14T11:22:39.643Z,49760
2018-02-14T11:23:49.770Z,52032
2018-02-14T11:24:59.920Z,56256
2018-02-14T11:26:10.181Z,53184
2018-02-14T11:27:19.816Z,53568
2018-02-14T11:28:29.985Z,51488
2018-02-14T11:29:40.153Z,45472
2018-02-14T11:30:50.419Z,48608
2018-02-14T11:32:00.290Z,45408
2018-02-14T11:33:10.438Z,44480
2018-02-14T11:34:20.658Z,48320
2018-02-14T11:35:30.581Z,50752
2018-02-14T11:36:40.747Z,48192
2018-02-14T11:37:50.930Z,47712
2018-02-14T11:39:01.078Z,45792
2018-02-14T11:40:11.260Z,45824
2018-02-14T11:41:22.481Z,47136
2018-02-14T11:42:32.377Z,45248
2018-02-14T11:43:42.516Z,38944
2018-02-14T11:44:52.696Z,41056
2018-02-14T11:46:02.955Z,49728
2018-02-14T11:47:13.130Z,48896
2018-02-14T11:48:23.089Z,43040
2018-02-14T11:49:33.226Z,47072
2018-02-14T11:50:43.357Z,49152
2018-02-14T11:51:53.573Z,47136
2018-02-14T11:53:03.486Z,42080
2018-02-14T11:54:13.396Z,45024
2018-02-14T11:55:23.869Z,49280
2018-02-14T11:56:34.003Z,42720
2018-02-14T11:57:44.168Z,44192
2018-02-14T11:58:54.344Z,46944
2018-02-14T12:00:05.236Z,51040
2018-02-14T12:01:15.367Z,51264
2018-02-14T12:02:26.506Z,43520
2018-02-14T12:03:36.687Z,52992
2018-02-14T12:04:46.852Z,58240
2018-02-14T12:05:57.059Z,39456
2018-02-14T12:07:07.323Z,42272
2018-02-14T12:08:17.486Z,51200
2018-02-14T12:09:27.641Z,45728
2018-02-14T12:10:37.800Z,43808
2018-02-14T12:11:47.937Z,50624
2018-02-14T12:12:58.114Z,56384
2018-02-14T12:14:08.244Z,44992
2018-02-14T12:15:18.511Z,39488
2018-02-14T12:16:28.649Z,53440
2018-02-14T12:17:38.841Z,56320
2018-02-14T12:18:49.007Z,45280
2018-02-14T12:19:59.207Z,47744
2018-02-14T12:21:09.469Z,47296
2018-02-14T12:22:19.764Z,47648
2018-02-14T12:23:30.008Z,51104
2018-02-14T12:24:40.241Z,52352
2018-02-14T12:25:50.454Z,52224
2018-02-14T12:27:00.620Z,47264
2018-02-14T12:28:10.796Z,45248
2018-02-14T12:29:21.026Z,57664
2018-02-14T12:30:31.259Z,52480
2018-02-14T12:31:41.419Z,42944
2018-02-14T12:32:51.516Z,48768
2018-02-14T12:34:01.670Z,48032
2018-02-14T12:35:11.823Z,42240
2018-02-14T12:36:21.991Z,43520
2018-02-14T12:37:32.142Z,47200
2018-02-14T12:38:42.341Z,45664
2018-02-14T12:39:52.514Z,39584
2018-02-14T12:41:02.664Z,39840
2018-02-14T12:42:12.847Z,44544
2018-02-14T12:43:23.019Z,43680
2018-02-14T12:44:33.166Z,38304
2018-02-14T12:45:43.351Z,42048
2018-02-14T12:46:53.503Z,47104
2018-02-14T12:48:03.415Z,42976
2018-02-14T12:49:13.563Z,47232
2018-02-14T12:50:23.710Z,42528
2018-02-14T12:51:33.622Z,39392
2018-02-14T12:52:43.787Z,53248
2018-02-14T12:53:53.972Z,46880
2018-02-14T12:55:04.164Z,38816
2018-02-14T12:56:14.591Z,48224
2018-02-14T12:57:24.754Z,50560
2018-02-14T12:58:34.948Z,44480
2018-02-14T12:59:45.138Z,43360
2018-02-14T13:00:55.043Z,43936
2018-02-14T13:02:05.407Z,45312
2018-02-14T13:03:15.552Z,37952
2018-02-14T13:04:25.821Z,40192
2018-02-14T13:05:36.001Z,50272
2018-02-14T13:06:46.236Z,45600
2018-02-14T13:07:56.439Z,45312
2018-02-14T13:09:06.695Z,37696
2018-02-14T13:10:16.914Z,39968
2018-02-14T13:11:27.180Z,42080
2018-02-14T13:12:37.436Z,40416
2018-02-14T13:13:47.153Z,44224
2018-02-14T13:14:57.292Z,37152
2018-02-14T13:16:07.447Z,38624
2018-02-14T13:17:17.458Z,41056
2018-02-14T13:18:27.622Z,37376
2018-02-14T13:19:37.747Z,39840
2018-02-14T13:20:47.984Z,42240
2018-02-14T13:21:58.256Z,33088
2018-02-14T13:23:08.444Z,34816
2018-02-14T13:24:18.582Z,42912
2018-02-14T13:25:28.513Z,43264
2018-02-14T13:26:38.683Z,43264
2018-02-14T13:27:48.833Z,41568
2018-02-14T13:28:59.049Z,35072
2018-02-14T13:30:09.204Z,38720
2018-02-14T13:31:19.422Z,35744
2018-02-14T13:32:29.659Z,36608
2018-02-14T13:33:39.852Z,37024
2018-02-14T13:34:50.081Z,35488
2018-02-14T13:36:00.231Z,40512
2018-02-14T13:37:10.003Z,40960
2018-02-14T13:38:20.212Z,36992
2018-02-14T13:39:30.150Z,36192
2018-02-14T13:40:40.062Z,33952
2018-02-14T13:41:50.199Z,35488
2018-02-14T13:43:00.338Z,39392
2018-02-14T13:44:10.558Z,35936
2018-02-14T13:45:20.453Z,36224
2018-02-14T13:46:30.590Z,37056
2018-02-14T13:47:40.742Z,36288
2018-02-14T13:48:50.921Z,38656
2018-02-14T13:50:01.139Z,39168
2018-02-14T13:51:11.348Z,35744
2018-02-14T13:52:21.597Z,33472
2018-02-14T13:53:31.726Z,36512
2018-02-14T13:54:41.895Z,34912
2018-02-14T13:55:52.101Z,33088
2018-02-14T13:57:02.306Z,26592
2018-02-14T13:58:12.451Z,27232
2018-02-14T13:59:22.609Z,23968
2018-02-14T14:00:32.764Z,15360
2018-02-14T14:01:42.912Z,10428
2018-02-14T14:02:53.106Z,9424
2018-02-14T14:04:03.290Z,9256
2018-02-14T14:05:13.444Z,8996
2018-02-14T14:06:23.665Z,8676
2018-02-14T14:07:33.867Z,8500
2018-02-14T14:08:44.118Z,8192
2018-02-14T14:09:54.528Z,7748
2018-02-14T14:11:04.770Z,7756
2018-02-14T14:12:14.912Z,7924
2018-02-14T14:13:25.104Z,11988
2018-02-14T14:14:35.255Z,18592
2018-02-14T14:15:45.404Z,24128
2018-02-14T14:16:55.549Z,20128
2018-02-14T14:18:05.813Z,16992
2018-02-14T14:19:15.973Z,12440
2018-02-14T14:20:25.886Z,9748
2018-02-14T14:21:35.999Z,9064
2018-02-14T14:22:46.262Z,8548
2018-02-14T14:23:56.448Z,8196
2018-02-14T14:25:06.600Z,8064
2018-02-14T14:26:16.733Z,7940
2018-02-14T14:27:26.879Z,7748
2018-02-14T14:28:37.005Z,7564
2018-02-14T14:29:47.182Z,7372
2018-02-14T14:30:57.370Z,7280
2018-02-14T14:32:07.098Z,7160
2018-02-14T14:33:17.306Z,7056
2018-02-14T14:34:26.978Z,6968
2018-02-14T14:35:37.262Z,6876
2018-02-14T14:36:47.425Z,6784
2018-02-14T14:37:57.681Z,6708
2018-02-14T14:39:07.856Z,6648
2018-02-14T14:40:18.023Z,6588
2018-02-14T14:41:28.169Z,6524
2018-02-14T14:42:38.304Z,6440
2018-02-14T14:43:48.495Z,6364
2018-02-14T14:44:58.618Z,6312
2018-02-14T14:46:08.797Z,6304
2018-02-14T14:47:18.948Z,6320
2018-02-14T14:48:29.109Z,9264
2018-02-14T14:49:39.245Z,16384
2018-02-14T14:50:49.413Z,16960
2018-02-14T14:51:59.541Z,17408
2018-02-14T14:53:09.704Z,17216
2018-02-14T14:54:19.573Z,15552
2018-02-14T14:55:29.704Z,16192
2018-02-14T14:56:39.637Z,16064
2018-02-14T14:57:49.794Z,15488
2018-02-14T14:58:59.924Z,15584
2018-02-14T15:00:10.125Z,15968
2018-02-14T15:01:20.282Z,15136
2018-02-14T15:02:30.481Z,15488
2018-02-14T15:03:40.370Z,15264
2018-02-14T15:04:50.604Z,14720
2018-02-14T15:06:00.759Z,13792
2018-02-14T15:07:10.973Z,14464
2018-02-14T15:08:21.204Z,13824
2018-02-14T15:09:31.455Z,13248
2018-02-14T15:10:41.584Z,13472
2018-02-14T15:11:51.727Z,12512
2018-02-14T15:13:01.918Z,9488
2018-02-14T15:14:13.043Z,6468
2018-02-14T15:15:23.218Z,4920
2018-02-14T15:16:33.149Z,4568
2018-02-14T15:17:43.385Z,4340
2018-02-14T15:18:53.521Z,4152
2018-02-14T15:20:03.689Z,3992
2018-02-14T15:21:13.901Z,3836
2018-02-14T15:22:24.040Z,3696
2018-02-14T15:23:34.172Z,3576
2018-02-14T15:24:44.321Z,3468
2018-02-14T15:25:54.475Z,3348
2018-02-14T15:27:04.616Z,3240
2018-02-14T15:28:14.863Z,3132
2018-02-14T15:29:25.038Z,3036
2018-02-14T15:30:34.953Z,2956
2018-02-14T15:31:45.084Z,2896
2018-02-14T15:32:55.287Z,2832
2018-02-14T15:34:05.426Z,2772
2018-02-14T15:35:15.587Z,2700
2018-02-14T15:36:25.838Z,2620
2018-02-14T15:37:36.094Z,2544
2018-02-14T15:38:46.250Z,2464
2018-02-14T15:39:56.561Z,2384
2018-02-14T15:41:06.843Z,2312
2018-02-14T15:42:16.764Z,2248
2018-02-14T15:43:26.894Z,2184
2018-02-14T15:44:37.312Z,2120
2018-02-14T15:45:47.495Z,2056
2018-02-14T15:46:57.651Z,1988
2018-02-14T15:48:07.788Z,1924
2018-02-14T15:49:17.914Z,1856
2018-02-14T15:50:28.054Z,1780
2018-02-14T15:51:38.234Z,1712
2018-02-14T15:52:48.412Z,1636
2018-02-14T15:53:58.536Z,1552
2018-02-14T15:55:08.684Z,1472
2018-02-14T15:56:18.817Z,1368
2018-02-14T15:57:29.014Z,1320
2018-02-14T15:58:39.216Z,1256
2018-02-14T15:59:49.136Z,1212
2018-02-14T16:01:03.246Z,1156
2018-02-14T16:02:13.971Z,1096
2018-02-14T16:03:24.845Z,1036
2018-02-14T16:04:35.056Z,980